createdAt,value
2022-08-31T00:00:21.111Z,101411.31
2022-08-31T00:01:30.891Z,101412.69
2022-08-31T00:02:38.941Z,101414.06
2022-08-31T00:03:44.005Z,101411.31
2022-08-31T00:04:32.231Z,101409.69
2022-08-31T00:05:18.790Z,101403.53
2022-08-31T00:06:06.551Z,101406.50
2022-08-31T00:06:54.096Z,101409.69
2022-08-31T00:07:41.008Z,101400.00
2022-08-31T00:08:29.856Z,101409.44
2022-08-31T00:09:16.361Z,101402.94
2022-08-31T00:10:13.999Z,101401.88
2022-08-31T00:11:01.172Z,101406.19
2022-08-31T00:11:47.666Z,101399.47
2022-08-31T00:12:34.136Z,101403.47
2022-08-31T00:13:22.394Z,101398.91
2022-08-31T00:14:13.396Z,101401.63
2022-08-31T00:15:00.023Z,101397.59
2022-08-31T00:15:46.628Z,101400.28
2022-08-31T00:16:37.567Z,101396.81
2022-08-31T00:17:24.194Z,101392.78
2022-08-31T00:18:10.829Z,101395.97
2022-08-31T00:18:57.597Z,101399.16
2022-08-31T00:19:46.043Z,101395.44
2022-08-31T00:20:34.814Z,101397.88
2022-08-31T00:21:24.175Z,101391.44
2022-08-31T00:22:10.940Z,101389.84
2022-08-31T00:22:57.447Z,101394.47
2022-08-31T00:23:43.856Z,101392.69
2022-08-31T00:24:32.001Z,101395.69
2022-08-31T00:25:19.403Z,101392.50
2022-08-31T00:26:06.103Z,101394.69
2022-08-31T00:26:52.614Z,101392.84
2022-08-31T00:27:39.546Z,101387.47
2022-08-31T00:28:26.963Z,101386.69
2022-08-31T00:29:14.723Z,101390.19
2022-08-31T00:30:01.281Z,101384.03
2022-08-31T00:31:03.207Z,101389.16
2022-08-31T00:31:49.827Z,101383.00
2022-08-31T00:32:36.732Z,101398.09
2022-08-31T00:33:23.283Z,101390.59
2022-08-31T00:34:09.808Z,101390.06
2022-08-31T00:34:56.318Z,101396.28
2022-08-31T00:35:43.923Z,101390.38
2022-08-31T00:36:30.581Z,101396.00
2022-08-31T00:37:17.099Z,101397.94
2022-08-31T00:38:05.527Z,101396.28
2022-08-31T00:38:53.016Z,101399.75
2022-08-31T00:39:39.998Z,101400.28
2022-08-31T00:40:26.630Z,101402.38
2022-08-31T00:41:14.067Z,101405.59
2022-08-31T00:42:00.619Z,101412.84
2022-08-31T00:42:47.109Z,101398.59
2022-08-31T00:43:48.543Z,101397.22
2022-08-31T00:44:35.047Z,101396.63
2022-08-31T00:45:23.481Z,101399.56
2022-08-31T00:46:17.681Z,101390.63
2022-08-31T00:47:04.751Z,101395.47
2022-08-31T00:47:51.957Z,101397.88
2022-08-31T00:48:49.812Z,101392.97
2022-08-31T00:49:39.966Z,101392.97
2022-08-31T00:50:28.048Z,101395.16
2022-08-31T00:51:18.625Z,101394.59
2022-08-31T00:52:12.970Z,101397.56
2022-08-31T00:53:01.366Z,101401.56
2022-08-31T00:53:50.789Z,101397.81
2022-08-31T00:54:49.463Z,101395.66
2022-08-31T00:55:37.651Z,101395.91
2022-08-31T00:56:26.234Z,101405.59
2022-08-31T00:57:14.368Z,101395.34
2022-08-31T00:58:06.407Z,101394.25
2022-08-31T00:58:54.893Z,101401.97
2022-08-31T00:59:44.301Z,101396.34
2022-08-31T01:00:31.637Z,101397.16
2022-08-31T01:01:20.223Z,101398.44
2022-08-31T01:02:07.583Z,101397.03
2022-08-31T01:02:56.852Z,101393.66
2022-08-31T01:03:43.317Z,101392.00
2022-08-31T01:04:31.044Z,101391.78
2022-08-31T01:05:18.667Z,101386.66
2022-08-31T01:06:05.388Z,101385.84
2022-08-31T01:06:52.855Z,101386.66
2022-08-31T01:07:40.872Z,101389.00
2022-08-31T01:08:30.972Z,101379.06
2022-08-31T01:09:22.281Z,101379.78
2022-08-31T01:10:10.405Z,101385.66
2022-08-31T01:10:58.604Z,101380.38
2022-08-31T01:11:45.229Z,101380.66
2022-08-31T01:12:32.095Z,101383.31
2022-08-31T01:13:20.064Z,101382.31
2022-08-31T01:14:08.250Z,101392.28
2022-08-31T01:14:56.212Z,101386.66
2022-08-31T01:15:54.184Z,101394.38
2022-08-31T01:16:47.264Z,101384.97
2022-08-31T01:17:36.756Z,101389.22
2022-08-31T01:18:25.047Z,101394.03
2022-08-31T01:19:22.001Z,101393.22
2022-08-31T01:20:18.659Z,101398.84
2022-08-31T01:21:16.415Z,101392.75
2022-08-31T01:22:15.670Z,101393.31
2022-08-31T01:23:08.520Z,101393.03
2022-08-31T01:23:59.814Z,101398.19
2022-08-31T01:24:50.564Z,101397.06
2022-08-31T01:25:38.949Z,101391.44
2022-08-31T01:26:29.034Z,101395.19
2022-08-31T01:27:24.000Z,101404.28
2022-08-31T01:28:12.444Z,101398.91
2022-08-31T01:29:04.848Z,101399.50
2022-08-31T01:29:51.487Z,101401.66
2022-08-31T01:30:38.508Z,101400.91
2022-08-31T01:31:43.330Z,101405.22
2022-08-31T01:32:29.902Z,101396.34
2022-08-31T01:33:16.406Z,101403.41
2022-08-31T01:34:03.067Z,101404.78
2022-08-31T01:34:49.568Z,101405.91
2022-08-31T01:35:36.338Z,101407.78
2022-08-31T01:36:23.148Z,101399.22
2022-08-31T01:37:12.386Z,101405.97
2022-08-31T01:38:02.455Z,101395.50
2022-08-31T01:38:53.334Z,101400.59
2022-08-31T01:39:40.422Z,101405.44
2022-08-31T01:40:49.232Z,101408.94
2022-08-31T01:41:41.153Z,101402.75
2022-08-31T01:42:33.526Z,101404.09
2022-08-31T01:43:21.680Z,101403.56
2022-08-31T01:44:13.401Z,101402.41
2022-08-31T01:44:59.950Z,101405.31
2022-08-31T01:45:47.098Z,101398.72
2022-08-31T01:46:33.667Z,101397.03
2022-08-31T01:47:20.468Z,101394.13
2022-08-31T01:48:08.795Z,101396.00
2022-08-31T01:48:55.417Z,101396.53
2022-08-31T01:49:42.003Z,101386.06
2022-08-31T01:50:28.514Z,101397.94
2022-08-31T01:51:18.110Z,101391.50
2022-08-31T01:52:05.403Z,101401.00
2022-08-31T01:52:53.519Z,101400.50
2022-08-31T01:53:43.358Z,101395.16
2022-08-31T01:54:36.510Z,101394.63
2022-08-31T01:55:24.689Z,101401.03
2022-08-31T01:56:18.504Z,101402.66
2022-08-31T01:57:05.138Z,101403.22
2022-08-31T01:58:11.370Z,101404.00
2022-08-31T01:59:19.313Z,101404.59
2022-08-31T02:00:18.289Z,101400.56
2022-08-31T02:01:24.242Z,101403.00
2022-08-31T02:02:13.603Z,101411.00
2022-08-31T02:03:03.262Z,101409.13
2022-08-31T02:03:51.184Z,101406.44
2022-08-31T02:04:37.856Z,101406.22
2022-08-31T02:05:24.401Z,101415.06
2022-08-31T02:06:13.343Z,101405.41
2022-08-31T02:07:01.365Z,101406.53
2022-08-31T02:07:48.057Z,101409.44
2022-08-31T02:08:35.004Z,101406.75
2022-08-31T02:09:22.295Z,101412.09
2022-08-31T02:10:09.707Z,101411.28
2022-08-31T02:10:56.529Z,101411.50
2022-08-31T02:11:43.898Z,101412.59
2022-08-31T02:12:31.277Z,101417.91
2022-08-31T02:13:18.475Z,101418.44
2022-08-31T02:14:06.781Z,101408.75
2022-08-31T02:14:53.573Z,101415.75
2022-08-31T02:15:40.439Z,101409.25
2022-08-31T02:16:28.238Z,101403.59
2022-08-31T02:17:15.446Z,101404.38
2022-08-31T02:18:02.073Z,101408.84
2022-08-31T02:18:50.769Z,101405.63
2022-08-31T02:19:37.442Z,101405.59
2022-08-31T02:20:24.036Z,101407.41
2022-08-31T02:21:12.418Z,101411.72
2022-08-31T02:21:59.006Z,101408.53
2022-08-31T02:22:48.565Z,101403.72
2022-08-31T02:23:35.637Z,101407.41
2022-08-31T02:24:22.098Z,101414.69
2022-08-31T02:25:09.677Z,101415.00
2022-08-31T02:25:56.426Z,101414.44
2022-08-31T02:26:43.074Z,101401.56
2022-08-31T02:27:29.747Z,101415.78
2022-08-31T02:28:18.740Z,101408.72
2022-08-31T02:29:07.191Z,101416.72
2022-08-31T02:29:54.272Z,101415.34
2022-08-31T02:30:42.946Z,101407.59
2022-08-31T02:31:29.765Z,101416.91
2022-08-31T02:32:21.267Z,101413.91
2022-08-31T02:33:09.501Z,101411.97
2022-08-31T02:33:56.553Z,101412.97
2022-08-31T02:34:44.830Z,101409.47
2022-08-31T02:35:31.307Z,101411.06
2022-08-31T02:36:18.071Z,101417.59
2022-08-31T02:37:05.393Z,101416.28
2022-08-31T02:37:58.098Z,101416.84
2022-08-31T02:38:45.109Z,101412.03
2022-08-31T02:39:31.588Z,101414.75
2022-08-31T02:40:18.219Z,101411.53
2022-08-31T02:41:06.359Z,101416.84
2022-08-31T02:41:54.491Z,101414.44
2022-08-31T02:42:52.483Z,101416.94
2022-08-31T02:43:42.520Z,101419.09
2022-08-31T02:44:30.291Z,101418.56
2022-08-31T02:45:16.804Z,101423.34
2022-08-31T02:46:04.098Z,101428.66
2022-08-31T02:46:56.848Z,101424.38
2022-08-31T02:47:59.530Z,101430.25
2022-08-31T02:48:49.600Z,101426.56
2022-08-31T02:49:39.806Z,101437.84
2022-08-31T02:50:26.416Z,101432.50
2022-08-31T02:51:13.091Z,101435.28
2022-08-31T02:51:59.779Z,101428.31
2022-08-31T02:52:47.549Z,101428.53
2022-08-31T02:53:34.585Z,101426.94
2022-08-31T02:54:21.162Z,101434.47
2022-08-31T02:55:07.728Z,101428.84
2022-08-31T02:55:54.289Z,101426.16
2022-08-31T02:56:41.046Z,101430.44
2022-08-31T02:57:27.813Z,101431.69
2022-08-31T02:58:18.598Z,101431.38
2022-08-31T02:59:08.226Z,101430.28
2022-08-31T02:59:54.688Z,101427.69
2022-08-31T03:00:46.456Z,101440.22
2022-08-31T03:01:35.109Z,101432.16
2022-08-31T03:02:24.001Z,101436.31
2022-08-31T03:03:19.513Z,101441.09
2022-08-31T03:04:06.860Z,101439.56
2022-08-31T03:04:53.315Z,101447.00
2022-08-31T03:05:40.020Z,101435.50
2022-08-31T03:06:27.339Z,101439.44
2022-08-31T03:07:13.959Z,101443.72
2022-08-31T03:08:00.859Z,101436.88
2022-08-31T03:08:47.469Z,101441.22
2022-08-31T03:09:34.224Z,101432.16
2022-08-31T03:10:24.963Z,101433.31
2022-08-31T03:11:11.940Z,101437.66
2022-08-31T03:12:00.185Z,101431.28
2022-08-31T03:12:48.520Z,101434.81
2022-08-31T03:13:39.339Z,101436.19
2022-08-31T03:14:26.569Z,101434.03
2022-08-31T03:15:16.374Z,101428.44
2022-08-31T03:16:07.163Z,101428.09
2022-08-31T03:16:54.223Z,101426.59
2022-08-31T03:17:40.989Z,101422.84
2022-08-31T03:18:28.737Z,101422.09
2022-08-31T03:19:15.343Z,101421.28
2022-08-31T03:20:05.657Z,101420.72
2022-08-31T03:20:52.785Z,101424.22
2022-08-31T03:21:39.253Z,101420.16
2022-08-31T03:22:25.727Z,101422.34
2022-08-31T03:23:12.615Z,101425.50
2022-08-31T03:23:59.117Z,101428.75
2022-08-31T03:24:47.979Z,101423.88
2022-08-31T03:25:34.476Z,101425.97
2022-08-31T03:26:21.277Z,101429.50
2022-08-31T03:27:07.746Z,101424.63
2022-08-31T03:27:54.421Z,101420.28
2022-08-31T03:28:40.971Z,101421.91
2022-08-31T03:30:05.368Z,101420.56
2022-08-31T03:30:55.954Z,101421.69
2022-08-31T03:31:42.750Z,101417.19
2022-08-31T03:32:30.814Z,101414.88
2022-08-31T03:33:17.672Z,101422.38
2022-08-31T03:34:04.409Z,101416.94
2022-08-31T03:34:55.641Z,101419.66
2022-08-31T03:35:44.039Z,101416.22
2022-08-31T03:36:31.335Z,101426.63
2022-08-31T03:37:17.906Z,101419.91
2022-08-31T03:38:05.296Z,101412.56
2022-08-31T03:38:52.218Z,101416.56
2022-08-31T03:39:38.934Z,101418.13
2022-08-31T03:40:25.466Z,101420.97
2022-08-31T03:41:14.215Z,101423.19
2022-08-31T03:42:01.756Z,101423.91
2022-08-31T03:42:50.000Z,101422.50
2022-08-31T03:43:36.945Z,101419.66
2022-08-31T03:44:24.349Z,101421.88
2022-08-31T03:45:11.982Z,101430.09
2022-08-31T03:45:59.255Z,101426.28
2022-08-31T03:46:46.652Z,101430.25
2022-08-31T03:47:33.388Z,101431.63
2022-08-31T03:48:20.094Z,101422.34
2022-08-31T03:49:07.589Z,101422.19
2022-08-31T03:49:54.180Z,101424.09
2022-08-31T03:50:47.636Z,101420.97
2022-08-31T03:51:43.211Z,101419.97
2022-08-31T03:52:30.489Z,101418.75
2022-08-31T03:53:23.950Z,101414.97
2022-08-31T03:54:13.937Z,101413.47
2022-08-31T03:55:00.664Z,101417.41
2022-08-31T03:55:47.370Z,101416.34
2022-08-31T03:56:34.845Z,101412.03
2022-08-31T03:57:21.371Z,101416.41
2022-08-31T03:58:09.137Z,101418.03
2022-08-31T03:58:55.667Z,101416.88
2022-08-31T04:00:09.071Z,101414.88
2022-08-31T04:01:20.096Z,101422.97
2022-08-31T04:02:37.373Z,101418.44
2022-08-31T04:03:42.765Z,101416.31
2022-08-31T04:04:54.280Z,101425.66
2022-08-31T04:06:00.740Z,101429.16
2022-08-31T04:07:05.910Z,101421.34
2022-08-31T04:08:11.404Z,101423.81
2022-08-31T04:09:16.705Z,101427.84
2022-08-31T04:10:25.923Z,101425.22
2022-08-31T04:11:45.167Z,101424.09
2022-08-31T04:12:52.307Z,101427.22
2022-08-31T04:14:12.588Z,101415.88
2022-08-31T04:15:20.766Z,101423.19
2022-08-31T04:16:43.767Z,101426.47
2022-08-31T04:17:49.253Z,101424.97
2022-08-31T04:18:59.088Z,101430.16
2022-08-31T04:19:49.421Z,101422.97
2022-08-31T04:20:46.277Z,101426.16
2022-08-31T04:21:33.306Z,101421.59
2022-08-31T04:22:20.092Z,101424.28
2022-08-31T04:23:32.958Z,101424.78
2022-08-31T04:24:19.671Z,101419.97
2022-08-31T04:25:10.312Z,101429.78
2022-08-31T04:25:58.109Z,101421.81
2022-08-31T04:26:44.624Z,101426.91
2022-08-31T04:27:32.015Z,101416.19
2022-08-31T04:28:18.495Z,101422.66
2022-08-31T04:29:12.219Z,101419.13
2022-08-31T04:29:59.811Z,101428.53
2022-08-31T04:30:48.354Z,101425.38
2022-08-31T04:31:36.897Z,101422.47
2022-08-31T04:32:23.715Z,101426.69
2022-08-31T04:33:10.780Z,101431.94
2022-08-31T04:33:58.383Z,101425.41
2022-08-31T04:34:44.885Z,101426.22
2022-08-31T04:35:31.667Z,101426.78
2022-08-31T04:36:21.489Z,101423.53
2022-08-31T04:37:14.321Z,101428.91
2022-08-31T04:38:01.085Z,101425.97
2022-08-31T04:38:52.981Z,101429.16
2022-08-31T04:39:50.395Z,101426.53
2022-08-31T04:40:39.913Z,101424.38
2022-08-31T04:41:29.234Z,101423.06
2022-08-31T04:42:15.690Z,101430.56
2022-08-31T04:43:02.226Z,101429.84
2022-08-31T04:43:51.867Z,101424.16
2022-08-31T04:44:38.543Z,101425.78
2022-08-31T04:45:25.389Z,101434.38
2022-08-31T04:46:12.912Z,101435.69
2022-08-31T04:46:59.820Z,101431.47
2022-08-31T04:47:46.346Z,101434.63
2022-08-31T04:48:35.662Z,101431.47
2022-08-31T04:49:22.125Z,101434.63
2022-08-31T04:50:10.473Z,101438.88
2022-08-31T04:51:20.176Z,101428.16
2022-08-31T04:52:08.200Z,101435.69
2022-08-31T04:53:02.945Z,101433.56
2022-08-31T04:53:52.768Z,101437.25
2022-08-31T04:54:39.314Z,101439.97
2022-08-31T04:55:25.984Z,101439.72
2022-08-31T04:56:18.771Z,101444.84
2022-08-31T04:57:05.359Z,101439.50
2022-08-31T04:57:52.890Z,101443.22
2022-08-31T04:58:40.688Z,101436.81
2022-08-31T04:59:27.669Z,101442.59
2022-08-31T05:00:37.509Z,101440.91
2022-08-31T05:01:43.436Z,101440.44
2022-08-31T05:02:57.792Z,101441.03
2022-08-31T05:03:44.643Z,101446.91
2022-08-31T05:04:32.030Z,101449.78
2022-08-31T05:05:18.731Z,101445.94
2022-08-31T05:06:05.533Z,101448.94
2022-08-31T05:06:52.952Z,101438.97
2022-08-31T05:07:39.575Z,101455.41
2022-08-31T05:08:27.783Z,101448.00
2022-08-31T05:09:17.924Z,101448.91
2022-08-31T05:10:06.854Z,101446.03
2022-08-31T05:10:53.399Z,101441.19
2022-08-31T05:11:40.909Z,101448.69
2022-08-31T05:12:27.561Z,101442.78
2022-08-31T05:13:14.306Z,101449.81
2022-08-31T05:14:04.438Z,101440.41
2022-08-31T05:14:51.258Z,101440.91
2022-08-31T05:15:44.607Z,101448.13
2022-08-31T05:16:37.337Z,101446.53
2022-08-31T05:17:23.885Z,101447.75
2022-08-31T05:18:12.131Z,101441.59
2022-08-31T05:19:06.026Z,101439.56
2022-08-31T05:19:52.739Z,101437.66
2022-08-31T05:20:40.521Z,101444.91
2022-08-31T05:21:32.600Z,101446.63
2022-08-31T05:22:19.129Z,101437.50
2022-08-31T05:23:07.592Z,101444.22
2022-08-31T05:23:57.404Z,101444.81
2022-08-31T05:24:44.566Z,101445.13
2022-08-31T05:25:33.513Z,101451.91
2022-08-31T05:26:26.610Z,101450.22
2022-08-31T05:27:13.812Z,101445.69
2022-08-31T05:28:00.765Z,101443.31
2022-08-31T05:28:48.259Z,101446.84
2022-08-31T05:29:34.743Z,101448.47
2022-08-31T05:30:47.487Z,101451.25
2022-08-31T05:31:52.660Z,101448.88
2022-08-31T05:32:39.738Z,101448.44
2022-08-31T05:33:30.100Z,101453.00
2022-08-31T05:34:17.761Z,101446.81
2022-08-31T05:35:04.944Z,101452.66
2022-08-31T05:35:51.458Z,101451.81
2022-08-31T05:36:39.772Z,101455.56
2022-08-31T05:37:27.183Z,101457.97
2022-08-31T05:38:14.011Z,101454.75
2022-08-31T05:39:01.650Z,101450.72
2022-08-31T05:39:48.501Z,101452.44
2022-08-31T05:40:35.264Z,101450.28
2022-08-31T05:41:23.440Z,101447.41
2022-08-31T05:42:10.347Z,101453.44
2022-08-31T05:42:59.395Z,101449.66
2022-08-31T05:43:45.907Z,101454.22
2022-08-31T05:44:34.199Z,101452.91
2022-08-31T05:45:20.771Z,101450.28
2022-08-31T05:46:13.514Z,101452.38
2022-08-31T05:47:03.405Z,101453.78
2022-08-31T05:47:50.855Z,101455.44
2022-08-31T05:48:37.790Z,101446.94
2022-08-31T05:49:28.104Z,101448.56
2022-08-31T05:50:15.568Z,101451.81
2022-08-31T05:51:08.686Z,101450.47
2022-08-31T05:51:58.967Z,101447.84
2022-08-31T05:52:45.690Z,101452.97
2022-08-31T05:53:33.825Z,101443.03
2022-08-31T05:54:20.640Z,101454.06
2022-08-31T05:55:08.358Z,101448.53
2022-08-31T05:56:03.508Z,101444.94
2022-08-31T05:56:50.282Z,101449.25
2022-08-31T05:57:38.118Z,101447.16
2022-08-31T05:58:24.568Z,101443.59
2022-08-31T05:59:12.522Z,101446.03
2022-08-31T05:59:59.074Z,101441.72
2022-08-31T06:00:49.682Z,101447.16
2022-08-31T06:02:03.068Z,101448.81
2022-08-31T06:02:54.053Z,101448.25
2022-08-31T06:03:41.547Z,101455.56
2022-08-31T06:04:28.696Z,101449.66
2022-08-31T06:05:15.212Z,101447.72
2022-08-31T06:06:04.080Z,101460.34
2022-08-31T06:06:51.775Z,101450.53
2022-08-31T06:07:40.685Z,101454.81
2022-08-31T06:08:30.397Z,101458.59
2022-08-31T06:09:17.024Z,101453.81
2022-08-31T06:10:05.264Z,101451.13
2022-08-31T06:10:51.936Z,101462.22
2022-08-31T06:11:42.010Z,101462.19
2022-08-31T06:12:34.166Z,101460.25
2022-08-31T06:13:21.253Z,101452.44
2022-08-31T06:14:09.651Z,101460.19
2022-08-31T06:14:56.174Z,101461.00
2022-08-31T06:15:44.466Z,101457.56
2022-08-31T06:16:33.010Z,101459.63
2022-08-31T06:17:19.667Z,101463.72
2022-08-31T06:18:07.973Z,101459.16
2022-08-31T06:18:55.510Z,101462.97
2022-08-31T06:19:42.087Z,101456.28
2022-08-31T06:20:29.555Z,101464.84
2022-08-31T06:21:25.562Z,101469.09
2022-08-31T06:22:12.412Z,101462.38
2022-08-31T06:22:58.929Z,101464.50
2022-08-31T06:23:58.155Z,101460.69
2022-08-31T06:24:44.896Z,101461.22
2022-08-31T06:25:33.160Z,101463.16
2022-08-31T06:26:21.695Z,101463.75
2022-08-31T06:27:10.242Z,101465.34
2022-08-31T06:27:59.318Z,101470.31
2022-08-31T06:28:49.184Z,101469.50
2022-08-31T06:29:37.891Z,101470.81
2022-08-31T06:30:27.208Z,101465.44
2022-08-31T06:31:20.354Z,101460.56
2022-08-31T06:32:10.068Z,101464.97
2022-08-31T06:33:07.091Z,101472.13
2022-08-31T06:34:10.198Z,101472.72
2022-08-31T06:35:15.114Z,101467.28
2022-08-31T06:36:20.832Z,101467.09
2022-08-31T06:37:20.505Z,101470.38
2022-08-31T06:38:27.237Z,101469.06
2022-08-31T06:39:39.414Z,101470.66
2022-08-31T06:40:55.371Z,101464.69
2022-08-31T06:41:52.611Z,101472.28
2022-08-31T06:42:55.583Z,101474.50
2022-08-31T06:43:51.820Z,101472.59
2022-08-31T06:44:50.801Z,101474.47
2022-08-31T06:45:39.464Z,101467.22
2022-08-31T06:46:46.111Z,101475.84
2022-08-31T06:47:43.708Z,101477.97
2022-08-31T06:48:31.213Z,101475.28
2022-08-31T06:49:19.225Z,101480.66
2022-08-31T06:50:06.310Z,101475.00
2022-08-31T06:50:57.998Z,101480.16
2022-08-31T06:51:45.355Z,101473.44
2022-08-31T06:52:34.693Z,101487.16
2022-08-31T06:53:52.097Z,101479.09
2022-08-31T06:54:57.439Z,101479.38
2022-08-31T06:56:20.469Z,101482.34
2022-08-31T06:57:30.632Z,101476.47
2022-08-31T06:58:37.139Z,101478.03
2022-08-31T06:59:47.035Z,101478.59
2022-08-31T07:01:15.941Z,101480.22
2022-08-31T07:02:28.682Z,101480.47
2022-08-31T07:03:24.209Z,101487.47
2022-08-31T07:04:14.300Z,101482.94
2022-08-31T07:05:01.090Z,101488.59
2022-08-31T07:05:47.588Z,101484.28
2022-08-31T07:06:42.738Z,101486.41
2022-08-31T07:07:31.768Z,101486.19
2022-08-31T07:08:19.878Z,101479.44
2022-08-31T07:09:10.120Z,101488.84
2022-08-31T07:09:56.897Z,101493.41
2022-08-31T07:10:45.525Z,101498.78
2022-08-31T07:11:44.532Z,101491.81
2022-08-31T07:12:31.869Z,101496.66
2022-08-31T07:13:20.218Z,101497.22
2022-08-31T07:14:08.912Z,101495.88
2022-08-31T07:14:57.849Z,101494.25
2022-08-31T07:15:44.636Z,101495.84
2022-08-31T07:16:32.934Z,101487.25
2022-08-31T07:17:19.597Z,101491.81
2022-08-31T07:18:10.296Z,101495.31
2022-08-31T07:19:00.711Z,101494.78
2022-08-31T07:19:47.603Z,101487.50
2022-08-31T07:20:35.813Z,101492.34
2022-08-31T07:21:26.162Z,101492.88
2022-08-31T07:22:13.368Z,101490.47
2022-08-31T07:23:03.237Z,101491.53
2022-08-31T07:23:59.614Z,101491.53
2022-08-31T07:24:46.125Z,101488.31
2022-08-31T07:25:33.429Z,101487.50
2022-08-31T07:26:27.687Z,101489.13
2022-08-31T07:27:18.157Z,101490.47
2022-08-31T07:28:13.157Z,101492.63
2022-08-31T07:29:01.485Z,101492.59
2022-08-31T07:29:47.930Z,101496.66
2022-08-31T07:30:38.097Z,101489.66
2022-08-31T07:31:40.552Z,101493.13
2022-08-31T07:32:27.371Z,101495.31
2022-08-31T07:33:14.735Z,101496.09
2022-08-31T07:34:10.762Z,101496.09
2022-08-31T07:35:09.104Z,101493.44
2022-08-31T07:36:15.484Z,101486.97
2022-08-31T07:37:31.451Z,101499.59
2022-08-31T07:38:37.445Z,101493.41
2022-08-31T07:39:44.596Z,101489.66
2022-08-31T07:40:49.728Z,101496.66
2022-08-31T07:41:55.207Z,101500.13
2022-08-31T07:42:44.892Z,101502.31
2022-08-31T07:43:32.150Z,101491.53
2022-08-31T07:44:22.785Z,101497.72
2022-08-31T07:45:22.477Z,101496.09
2022-08-31T07:46:10.767Z,101497.16
2022-08-31T07:46:58.002Z,101504.19
2022-08-31T07:47:46.996Z,101499.84
2022-08-31T07:48:34.596Z,101499.34
2022-08-31T07:49:50.915Z,101501.22
2022-08-31T07:50:50.359Z,101506.06
2022-08-31T07:51:37.742Z,101500.13
2022-08-31T07:52:33.896Z,101504.44
2022-08-31T07:53:26.947Z,101500.13
2022-08-31T07:54:29.728Z,101504.16
2022-08-31T07:55:26.915Z,101504.63
2022-08-31T07:56:20.576Z,101508.19
2022-08-31T07:57:09.894Z,101497.66
2022-08-31T07:57:57.818Z,101498.50
2022-08-31T07:58:47.693Z,101509.78
2022-08-31T07:59:34.650Z,101499.84
2022-08-31T08:00:25.350Z,101505.47
2022-08-31T08:01:11.849Z,101505.75
2022-08-31T08:02:02.242Z,101510.09
2022-08-31T08:02:52.878Z,101511.97
2022-08-31T08:03:47.006Z,101510.63
2022-08-31T08:05:11.715Z,101509.00
2022-08-31T08:06:34.188Z,101515.72
2022-08-31T08:07:36.579Z,101517.09
2022-08-31T08:09:12.661Z,101515.47
2022-08-31T08:10:19.631Z,101517.63
2022-08-31T08:11:44.649Z,101520.59
2022-08-31T08:13:04.869Z,101522.72
2022-08-31T08:14:12.585Z,101519.78
2022-08-31T08:15:11.081Z,101512.25
2022-08-31T08:16:07.750Z,101524.91
2022-08-31T08:17:08.913Z,101517.63
2022-08-31T08:18:00.691Z,101523.03
2022-08-31T08:18:50.941Z,101520.88
2022-08-31T08:19:41.165Z,101527.59
2022-08-31T08:20:37.429Z,101523.81
2022-08-31T08:21:26.720Z,101517.38
2022-08-31T08:22:13.320Z,101522.50
2022-08-31T08:23:30.203Z,101520.88
2022-08-31T08:24:35.820Z,101525.44
2022-08-31T08:25:25.752Z,101524.63
2022-08-31T08:26:23.865Z,101523.28
2022-08-31T08:27:24.185Z,101521.13
2022-08-31T08:28:38.677Z,101526.25
2022-08-31T08:29:26.803Z,101521.41
2022-08-31T08:30:14.272Z,101524.91
2022-08-31T08:31:01.902Z,101523.81
2022-08-31T08:31:56.266Z,101527.59
2022-08-31T08:32:44.174Z,101528.41
2022-08-31T08:33:33.529Z,101526.78
2022-08-31T08:34:29.573Z,101528.94
2022-08-31T08:35:19.117Z,101521.41
2022-08-31T08:36:08.281Z,101526.50
2022-08-31T08:36:55.300Z,101526.78
2022-08-31T08:38:07.052Z,101528.13
2022-08-31T08:38:53.957Z,101525.97
2022-08-31T08:39:42.994Z,101530.28
2022-08-31T08:40:39.542Z,101528.13
2022-08-31T08:41:31.616Z,101524.06
2022-08-31T08:42:22.420Z,101525.94
2022-08-31T08:43:18.232Z,101523.78
2022-08-31T08:44:09.951Z,101520.56
2022-08-31T08:45:01.889Z,101526.72
2022-08-31T08:45:54.031Z,101533.47
2022-08-31T08:46:52.114Z,101528.34
2022-08-31T08:47:40.940Z,101530.19
2022-08-31T08:48:37.916Z,101532.34
2022-08-31T08:49:49.843Z,101533.38
2022-08-31T08:50:41.937Z,101534.19
2022-08-31T08:51:38.971Z,101530.09
2022-08-31T08:52:41.389Z,101540.66
2022-08-31T08:53:31.854Z,101537.16
2022-08-31T08:54:43.647Z,101533.09
2022-08-31T08:55:37.520Z,101534.19
2022-08-31T08:56:33.275Z,101528.53
2022-08-31T08:57:31.449Z,101534.97
2022-08-31T08:58:19.870Z,101536.00
2022-08-31T08:59:15.834Z,101535.25
2022-08-31T09:00:15.832Z,101531.44
2022-08-31T09:01:07.982Z,101532.22
2022-08-31T09:02:04.817Z,101535.44
2022-08-31T09:02:58.455Z,101527.00
2022-08-31T09:04:27.744Z,101527.63
2022-08-31T09:05:47.482Z,101531.03
2022-08-31T09:06:58.547Z,101527.75
2022-08-31T09:08:18.889Z,101528.53
2022-08-31T09:09:21.073Z,101532.88
2022-08-31T09:10:36.980Z,101531.84
2022-08-31T09:11:46.480Z,101527.50
2022-08-31T09:12:58.151Z,101537.69
2022-08-31T09:13:58.178Z,101528.81
2022-08-31T09:15:20.839Z,101528.59
2022-08-31T09:16:26.005Z,101537.22
2022-08-31T09:17:24.967Z,101533.13
2022-08-31T09:18:33.117Z,101529.84
2022-08-31T09:19:24.130Z,101529.59
2022-08-31T09:20:13.166Z,101536.34
2022-08-31T09:21:25.812Z,101534.97
2022-08-31T09:22:13.831Z,101530.59
2022-08-31T09:23:01.309Z,101533.84
2022-08-31T09:24:01.419Z,101529.50
2022-08-31T09:24:56.140Z,101535.16
2022-08-31T09:26:06.267Z,101536.78
2022-08-31T09:27:40.085Z,101537.06
2022-08-31T09:28:44.725Z,101530.53
2022-08-31T09:29:32.312Z,101536.22
2022-08-31T09:30:37.228Z,101535.72
2022-08-31T09:31:34.414Z,101537.09
2022-08-31T09:32:34.965Z,101525.88
2022-08-31T09:33:26.240Z,101538.22
2022-08-31T09:34:31.135Z,101525.28
2022-08-31T09:35:44.186Z,101532.91
2022-08-31T09:36:43.186Z,101538.72
2022-08-31T09:37:38.079Z,101541.06
2022-08-31T09:38:40.178Z,101543.59
2022-08-31T09:39:33.057Z,101539.50
2022-08-31T09:40:48.446Z,101545.25
2022-08-31T09:41:37.356Z,101537.03
2022-08-31T09:42:33.737Z,101554.38
2022-08-31T09:43:24.570Z,101556.50
2022-08-31T09:44:32.011Z,101554.19
2022-08-31T09:45:30.028Z,101551.66
2022-08-31T09:46:28.912Z,101545.81
2022-08-31T09:47:55.846Z,101543.53
2022-08-31T09:48:52.426Z,101538.22
2022-08-31T09:49:39.258Z,101540.41
2022-08-31T09:50:44.794Z,101539.81
2022-08-31T09:51:39.261Z,101536.91
2022-08-31T09:52:47.576Z,101536.41
2022-08-31T09:54:01.710Z,101539.63
2022-08-31T09:55:14.131Z,101544.47
2022-08-31T09:56:14.048Z,101544.28
2022-08-31T09:57:07.099Z,101538.66
2022-08-31T09:57:59.296Z,101537.13
2022-08-31T09:59:01.504Z,101548.03
2022-08-31T09:59:49.900Z,101542.22
2022-08-31T10:00:42.586Z,101541.03